Time;durP1;ratioP1;P1;durP2;ratioP2;P2;SDS_P1;SDS_P2;PMS_P1;PMS_P2;Temp;Humidity;BMP_temperature;BMP_pressure;BME280_temperature;BME280_humidity;BME280_pressure;Samples;Min_cycle;Max_cycle;Signal;HPM_P1;HPM_P2
2022/02/14 00:01:17;;;;;;;14.10;6.22;;;;;;;0.88;62.40;101649.19;1691914;82;22436;-61
2022/02/14 00:03:45;;;;;;;11.35;6.05;;;;;;;0.88;62.29;101647.05;1707782;82;21033;-61
2022/02/14 00:06:12;;;;;;;14.07;6.25;;;;;;;0.90;62.27;101646.12;1679999;83;21189;-61
2022/02/14 00:08:39;;;;;;;9.95;5.42;;;;;;;0.91;62.21;101637.92;1702116;82;21112;-61
2022/02/14 00:11:07;;;;;;;10.63;5.55;;;;;;;0.89;62.12;101623.70;1709632;82;21058;-61
2022/02/14 00:13:34;;;;;;;9.50;5.15;;;;;;;0.88;62.09;101625.86;1710920;82;22111;-60
2022/02/14 00:16:01;;;;;;;11.18;6.20;;;;;;;0.84;62.09;101620.34;1710378;82;21494;-61
2022/02/14 00:18:28;;;;;;;16.25;5.70;;;;;;;0.79;62.12;101612.23;1658503;84;21054;-62
2022/02/14 00:20:57;;;;;;;12.60;7.30;;;;;;;0.73;62.15;101609.33;1709646;82;21053;-60
2022/02/14 00:23:23;;;;;;;11.15;6.10;;;;;;;0.72;62.23;101621.44;1707888;82;21066;-60
2022/02/14 00:25:50;;;;;;;10.68;6.50;;;;;;;0.70;62.27;101618.45;1692997;82;21856;-60
2022/02/14 00:28:17;;;;;;;12.10;6.47;;;;;;;0.73;62.24;101622.28;1688935;84;21095;-59
2022/02/14 00:30:43;;;;;;;12.80;6.28;;;;;;;0.72;62.23;101621.44;1688680;82;21144;-60
2022/02/14 00:33:10;;;;;;;13.25;5.87;;;;;;;0.74;62.07;101621.41;1690640;84;21157;-59
2022/02/14 00:35:37;;;;;;;10.78;6.53;;;;;;;0.72;61.97;101621.86;1662184;84;21523;-60
2022/02/14 00:38:04;;;;;;;12.03;6.33;;;;;;;0.72;61.93;101621.86;1671446;84;23290;-60
2022/02/14 00:40:30;;;;;;;12.78;6.42;;;;;;;0.71;61.97;101625.34;1692976;82;21679;-61
2022/02/14 00:42:57;;;;;;;13.98;5.92;;;;;;;0.68;61.97;101617.18;1690357;82;21111;-60
2022/02/14 00:45:23;;;;;;;10.25;5.70;;;;;;;0.63;61.89;101619.00;1691736;84;21565;-60
2022/02/14 00:47:51;;;;;;;12.10;6.50;;;;;;;0.59;61.90;101616.49;1667976;84;21096;-61
2022/02/14 00:50:17;;;;;;;9.95;5.25;;;;;;;0.55;61.79;101613.11;1683347;82;22180;-61
2022/02/14 00:52:44;;;;;;;11.95;6.05;;;;;;;0.52;61.79;101611.45;1699318;82;21019;-61
2022/02/14 00:55:11;;;;;;;10.95;6.10;;;;;;;0.53;62.05;101609.25;1702725;83;21130;-61
2022/02/14 00:57:38;;;;;;;9.73;5.80;;;;;;;0.50;62.02;101602.83;1698364;82;21576;-61
2022/02/14 01:00:07;;;;;;;13.60;6.28;;;;;;;0.52;62.10;101601.09;1673793;83;21533;-62
2022/02/14 01:02:33;;;;;;;12.47;6.47;;;;;;;0.52;62.02;101597.20;1667598;83;21092;-61
2022/02/14 01:05:00;;;;;;;11.33;5.95;;;;;;;0.53;62.02;101591.58;1686653;83;21098;-62
2022/02/14 01:07:27;;;;;;;12.88;5.58;;;;;;;0.51;61.97;101591.59;1738237;82;21131;-61
2022/02/14 01:09:54;;;;;;;10.03;5.70;;;;;;;0.48;62.04;101592.95;1739335;81;21069;-61
2022/02/14 01:12:20;;;;;;;12.30;5.70;;;;;;;0.46;61.95;101593.42;1739690;82;21073;-61
2022/02/14 01:14:47;;;;;;;9.33;5.53;;;;;;;0.45;62.04;101593.45;1733064;81;21214;-60
2022/02/14 01:17:13;;;;;;;9.65;5.62;;;;;;;0.43;61.80;101593.92;1713375;82;21598;-60
2022/02/14 01:19:40;;;;;;;13.35;6.55;;;;;;;0.41;61.87;101589.22;1742875;82;21567;-60
2022/02/14 01:22:06;;;;;;;9.75;6.03;;;;;;;0.42;61.91;101587.91;1719468;81;21058;-60
2022/02/14 01:24:35;;;;;;;13.80;5.75;;;;;;;0.43;62.19;101587.45;1734405;80;21709;-60
2022/02/14 01:27:07;;;;;;;11.40;6.17;;;;;;;0.45;62.28;101589.56;1737188;81;21167;-60
2022/02/14 01:29:33;;;;;;;8.65;4.72;;;;;;;0.47;62.16;101582.61;1713742;82;21053;-60
2022/02/14 01:32:00;;;;;;;11.12;5.20;;;;;;;0.50;62.21;101585.16;1736777;81;21557;-60
2022/02/14 01:34:26;;;;;;;9.03;5.05;;;;;;;0.52;62.07;101579.08;1717011;82;21039;-60
2022/02/14 01:36:53;;;;;;;10.15;5.30;;;;;;;0.55;62.16;101584.20;1738781;81;21077;-61
2022/02/14 01:39:20;;;;;;;9.65;4.37;;;;;;;0.55;62.16;101584.20;1735211;81;22193;-61
2022/02/14 01:41:46;;;;;;;16.57;5.70;;;;;;;0.55;62.01;101581.61;1729761;80;21032;-61
2022/02/14 01:44:35;;;;;;;18.37;6.00;;;;;;;0.56;61.91;101573.39;1736972;81;21041;-59
2022/02/14 01:47:03;;;;;;;14.45;6.87;;;;;;;0.56;62.03;101574.69;1736567;81;21064;-60
2022/02/14 01:49:30;;;;;;;11.85;5.60;;;;;;;0.55;61.98;101571.67;1737315;82;21652;-62
2022/02/14 01:51:57;;;;;;;15.40;5.33;;;;;;;0.57;61.90;101566.02;1711107;82;21569;-59
2022/02/14 01:54:23;;;;;;;11.12;5.00;;;;;;;0.54;61.93;101554.45;1731321;80;22073;-60
2022/02/14 01:56:50;;;;;;;9.80;4.72;;;;;;;0.53;61.97;101558.75;1735312;81;21033;-61
2022/02/14 01:59:16;;;;;;;11.05;4.75;;;;;;;0.49;62.02;101551.94;1699061;82;21059;-60
2022/02/14 02:01:42;;;;;;;9.63;4.85;;;;;;;0.46;62.10;101553.73;1713786;81;21074;-59
2022/02/14 02:04:13;;;;;;;11.00;5.58;;;;;;;0.39;62.50;101552.13;1724790;81;21061;-60
2022/02/14 02:06:42;;;;;;;9.48;5.28;;;;;;;0.39;62.50;101552.13;1736314;80;21601;-59
2022/02/14 02:09:08;;;;;;;7.25;4.28;;;;;;;0.36;62.37;101550.01;1733426;81;21017;-60
2022/02/14 02:14:22;;;;;;;9.63;5.25;;;;;;;0.34;62.39;101547.89;1719888;80;21126;-60
2022/02/14 02:16:49;;;;;;;8.90;4.80;;;;;;;0.32;62.45;101543.61;1741797;81;21048;-60
2022/02/14 02:19:15;;;;;;;14.05;4.83;;;;;;;0.30;62.46;101541.50;1741726;80;21034;-60
2022/02/14 02:21:46;;;;;;;11.88;4.80;;;;;;;0.28;62.41;101537.64;1678028;83;21038;-60
2022/02/14 02:24:17;;;;;;;10.85;5.10;;;;;;;0.29;62.51;101542.41;1741072;80;21098;-59
2022/02/14 02:27:00;;;;;;;10.30;5.20;;;;;;;0.32;62.46;101534.13;1701801;82;21069;-59
2022/02/14 02:29:27;;;;;;;9.23;5.10;;;;;;;0.35;62.46;101529.32;1740566;80;21157;-59
2022/02/14 02:31:54;;;;;;;11.78;4.83;;;;;;;0.35;62.37;101527.61;1741194;80;21071;-60
2022/02/14 02:34:20;;;;;;;11.05;5.22;;;;;;;0.37;62.28;101524.99;1742376;81;21050;-60
2022/02/14 02:36:49;;;;;;;10.18;5.03;;;;;;;0.38;62.31;101524.55;1741347;81;21104;-59
2022/02/14 02:39:15;;;;;;;10.98;5.10;;;;;;;0.39;62.15;101527.52;1705825;82;21085;-59
2022/02/14 02:41:42;;;;;;;7.90;4.87;;;;;;;0.37;62.16;101531.47;1693863;82;21116;-60
2022/02/14 02:44:08;;;;;;;13.48;4.85;;;;;;;0.36;62.19;101533.17;1734811;80;21114;-60
2022/02/14 02:46:35;;;;;;;10.88;5.58;;;;;;;0.37;62.22;101536.64;1734830;80;21369;-60
2022/02/14 02:49:20;;;;;;;11.45;4.85;;;;;;;0.39;62.16;101533.58;1717983;82;21031;-60
2022/02/14 02:51:49;;;;;;;12.03;5.35;;;;;;;0.42;62.17;101533.94;1729253;80;21003;-59
2022/02/14 02:54:17;;;;;;;11.78;4.78;;;;;;;0.41;62.12;101524.03;1728315;80;21511;-59
2022/02/14 02:56:45;;;;;;;9.95;4.90;;;;;;;0.42;62.06;101522.29;1735480;80;20995;-60
2022/02/14 02:59:12;;;;;;;8.00;3.90;;;;;;;0.41;62.14;101530.51;1736646;81;21039;-59
2022/02/14 03:01:40;;;;;;;9.68;5.12;;;;;;;0.40;62.19;101533.12;1728113;80;21053;-60
2022/02/14 03:04:10;;;;;;;10.88;4.62;;;;;;;0.41;62.08;101537.44;1704607;82;21086;-60
2022/02/14 03:06:37;;;;;;;12.82;5.47;;;;;;;0.40;62.05;101527.95;1694094;82;21811;-60
2022/02/14 03:09:05;;;;;;;9.35;4.22;;;;;;;0.42;62.00;101526.17;1700889;82;21046;-59
2022/02/14 03:11:32;;;;;;;10.98;4.83;;;;;;;0.41;61.94;101520.60;1743185;80;21054;-60
2022/02/14 03:13:59;;;;;;;9.95;5.22;;;;;;;0.38;61.87;101521.95;1705594;80;21088;-59
2022/02/14 03:16:26;;;;;;;9.88;5.40;;;;;;;0.34;62.08;101516.83;1742741;80;21550;-60
2022/02/14 03:18:52;;;;;;;9.95;5.10;;;;;;;0.32;61.97;101516.02;1738902;80;21513;-60
2022/02/14 03:21:22;;;;;;;9.05;4.53;;;;;;;0.28;62.10;101512.20;1728148;81;21524;-60
2022/02/14 03:23:52;;;;;;;9.08;4.67;;;;;;;0.25;62.16;101505.34;1746901;80;21095;-60
2022/02/14 03:26:20;;;;;;;8.60;4.47;;;;;;;0.22;62.16;101504.55;1731104;81;21693;-59
2022/02/14 03:28:50;;;;;;;14.00;5.05;;;;;;;0.20;62.13;101501.14;1741044;80;21105;-59
2022/02/14 03:31:17;;;;;;;11.35;5.58;;;;;;;0.14;62.16;101499.08;1735275;80;21113;-60
2022/02/14 03:33:44;;;;;;;9.00;4.83;;;;;;;0.10;62.20;101500.03;1741292;80;21089;-60
2022/02/14 03:36:12;;;;;;;14.13;5.72;;;;;;;0.06;62.25;101503.55;1735867;80;21059;-60
2022/02/14 03:38:39;;;;;;;10.13;5.05;;;;;;;0.05;62.27;101500.98;1704609;82;21696;-60
2022/02/14 03:41:06;;;;;;;12.78;6.22;;;;;;;0.02;62.33;101508.37;1681200;83;21065;-60
2022/02/14 03:43:34;;;;;;;10.10;4.78;;;;;;;0.02;62.41;101500.61;1703423;82;21159;-60
2022/02/14 03:46:00;;;;;;;10.72;5.45;;;;;;;0.03;62.43;101511.36;1704628;82;21053;-60
2022/02/14 03:48:27;;;;;;;11.03;5.78;;;;;;;0.05;62.40;101507.45;1672794;83;21321;-60
2022/02/14 03:50:53;;;;;;;9.23;5.12;;;;;;;0.03;62.43;101513.95;1705541;83;21070;-61
2022/02/14 03:53:20;;;;;;;12.45;5.70;;;;;;;0.05;62.42;101507.03;1682226;83;21057;-60
2022/02/14 03:55:47;;;;;;;12.13;4.78;;;;;;;0.05;62.42;101507.03;1737422;80;21092;-60
2022/02/14 03:58:13;;;;;;;10.95;5.78;;;;;;;0.09;62.42;101506.08;1704156;82;21050;-60
2022/02/14 04:00:41;;;;;;;13.75;5.28;;;;;;;0.13;62.08;101490.05;1702101;82;21239;-59
2022/02/14 04:03:07;;;;;;;13.58;6.05;;;;;;;0.13;62.08;101490.05;1692605;82;21071;-59
2022/02/14 04:05:34;;;;;;;10.05;5.58;;;;;;;0.11;62.25;101486.20;1695378;82;22231;-59
2022/02/14 04:08:01;;;;;;;11.43;5.03;;;;;;;0.10;62.25;101479.75;1697876;82;21501;-60
2022/02/14 04:10:27;;;;;;;11.08;5.08;;;;;;;0.05;62.23;101468.22;1691619;82;21575;-59
2022/02/14 04:12:55;;;;;;;10.55;5.37;;;;;;;0.05;62.23;101468.22;1692463;83;21065;-60
2022/02/14 04:15:22;;;;;;;15.28;5.30;;;;;;;0.02;62.37;101462.22;1693161;82;21517;-60
2022/02/14 04:17:49;;;;;;;10.20;5.62;;;;;;;-0.01;62.64;101468.32;1671529;84;21666;-60
2022/02/14 04:20:15;;;;;;;11.90;5.65;;;;;;;-0.03;62.53;101471.38;1689188;82;21834;-60
2022/02/14 04:22:42;;;;;;;11.08;5.40;;;;;;;-0.03;62.58;101483.88;1727068;80;21623;-60
2022/02/14 04:25:10;;;;;;;9.00;5.33;;;;;;;-0.03;62.29;101468.80;1693239;82;21101;-60
2022/02/14 04:27:37;;;;;;;12.93;4.72;;;;;;;-0.03;62.29;101468.80;1730822;80;21051;-59
2022/02/14 04:30:05;;;;;;;9.23;4.30;;;;;;;-0.04;62.62;101478.72;1683192;82;21022;-60
2022/02/14 04:32:33;;;;;;;10.00;5.37;;;;;;;-0.04;62.62;101478.72;1695143;82;20987;-60
2022/02/14 04:35:00;;;;;;;10.48;5.50;;;;;;;-0.07;62.76;101468.42;1722269;80;21087;-61
2022/02/14 04:37:26;;;;;;;12.35;4.83;;;;;;;-0.07;62.79;101473.18;1713072;81;21580;-60
2022/02/14 04:39:53;;;;;;;13.48;5.30;;;;;;;-0.07;62.79;101469.72;1716956;81;21842;-60
2022/02/14 04:42:20;;;;;;;12.88;5.30;;;;;;;-0.08;62.81;101475.34;1691578;82;21452;-61
2022/02/14 04:44:47;;;;;;;11.40;5.92;;;;;;;-0.11;62.92;101477.14;1727654;81;21895;-59
2022/02/14 04:47:13;;;;;;;12.28;5.78;;;;;;;-0.11;62.92;101471.96;1713711;82;21567;-61
2022/02/14 04:49:39;;;;;;;10.10;5.97;;;;;;;-0.12;62.99;101476.71;1727161;80;21609;-59
2022/02/14 04:52:06;;;;;;;11.57;6.30;;;;;;;-0.15;62.99;101478.05;1727376;80;21717;-60
2022/02/14 04:54:34;;;;;;;9.25;4.80;;;;;;;-0.18;63.22;101478.98;1724759;80;21043;-61
2022/02/14 04:57:01;;;;;;;11.28;4.53;;;;;;;-0.18;63.07;101478.98;1714010;80;22158;-61
2022/02/14 04:59:28;;;;;;;13.03;6.00;;;;;;;-0.17;63.51;101493.60;1723614;81;21059;-61
2022/02/14 05:01:55;;;;;;;9.00;4.72;;;;;;;-0.15;63.12;101496.16;1670247;82;21097;-60
2022/02/14 05:04:22;;;;;;;8.20;5.03;;;;;;;-0.13;63.13;101500.89;1736502;80;21062;-59
2022/02/14 05:06:49;;;;;;;11.40;5.00;;;;;;;-0.08;62.88;101503.80;1734694;80;22253;-60
2022/02/14 05:09:16;;;;;;;8.10;4.37;;;;;;;-0.08;62.88;101503.80;1736333;80;21908;-60
2022/02/14 05:11:43;;;;;;;11.88;5.08;;;;;;;-0.05;62.94;101508.05;1732014;80;21479;-60
2022/02/14 05:14:09;;;;;;;9.45;4.45;;;;;;;-0.07;62.99;101511.11;1708096;82;22226;-60
2022/02/14 05:16:36;;;;;;;14.65;6.12;;;;;;;-0.07;63.06;101514.58;1701831;82;21522;-60
2022/02/14 05:19:03;;;;;;;8.90;3.95;;;;;;;-0.02;63.01;101514.47;1701252;82;21625;-60
2022/02/14 05:21:31;;;;;;;12.82;5.17;;;;;;;-0.02;63.01;101514.47;1680017;82;21258;-60
2022/02/14 05:23:57;;;;;;;12.47;4.65;;;;;;;0.02;62.97;101519.15;1696171;82;21038;-60
2022/02/14 05:26:25;;;;;;;10.65;4.67;;;;;;;0.02;62.68;101526.49;1698761;82;22265;-61
2022/02/14 05:28:55;;;;;;;9.40;5.17;;;;;;;0.02;62.68;101526.49;1705853;82;22179;-60
2022/02/14 05:31:20;;;;;;;9.53;5.30;;;;;;;0.02;62.81;101526.91;1720474;81;21070;-59
2022/02/14 05:33:49;;;;;;;9.78;5.45;;;;;;;0.02;62.79;101534.67;1730346;80;21094;-60
2022/02/14 05:36:18;;;;;;;9.33;4.97;;;;;;;-0.04;62.92;101535.65;1735702;80;21556;-60
2022/02/14 05:38:45;;;;;;;12.03;5.10;;;;;;;-0.07;62.99;101536.98;1727659;80;21098;-60
2022/02/14 05:41:12;;;;;;;10.13;5.17;;;;;;;-0.08;63.01;101540.47;1738235;80;22492;-60
2022/02/14 05:43:38;;;;;;;9.23;4.58;;;;;;;-0.07;63.03;101540.45;1742589;82;21599;-60
2022/02/14 05:46:05;;;;;;;9.80;4.95;;;;;;;-0.07;63.03;101547.34;1730750;80;21949;-60
2022/02/14 05:48:31;;;;;;;9.20;5.12;;;;;;;-0.05;63.04;101548.16;1694070;82;21098;-60
2022/02/14 05:50:58;;;;;;;11.53;5.15;;;;;;;-0.05;63.04;101548.16;1736385;80;21003;-61
2022/02/14 05:53:24;;;;;;;13.03;5.78;;;;;;;-0.03;63.21;101548.56;1677862;82;21098;-61
2022/02/14 05:55:51;;;;;;;11.40;5.12;;;;;;;-0.01;63.20;101553.27;1736239;80;21057;-61
2022/02/14 05:58:17;;;;;;;9.73;6.15;;;;;;;-0.01;63.24;101551.97;1739882;81;21585;-60
2022/02/14 06:00:43;;;;;;;11.18;5.92;;;;;;;0.00;63.26;101552.84;1742551;80;21094;-60
2022/02/14 06:03:10;;;;;;;12.28;5.85;;;;;;;-0.02;63.40;101561.92;1724141;80;21092;-61
2022/02/14 06:05:37;;;;;;;12.40;5.65;;;;;;;0.01;63.42;101561.00;1706692;82;21110;-60
2022/02/14 06:08:04;;;;;;;10.93;5.92;;;;;;;0.06;63.41;101573.42;1668013;83;21521;-60
2022/02/14 06:10:32;;;;;;;10.78;6.17;;;;;;;0.14;63.40;101566.83;1694248;82;21153;-60
2022/02/14 06:12:58;;;;;;;9.68;6.45;;;;;;;0.16;63.46;101568.95;1676791;83;21129;-60
2022/02/14 06:15:25;;;;;;;15.20;6.15;;;;;;;0.16;63.50;101563.31;1702596;82;21146;-61
2022/02/14 06:17:52;;;;;;;12.78;7.47;;;;;;;0.16;63.50;101563.31;1678545;83;21134;-61
2022/02/14 06:20:19;;;;;;;11.05;6.12;;;;;;;0.18;63.37;101571.94;1707147;83;22215;-59
2022/02/14 06:22:46;;;;;;;12.75;6.87;;;;;;;0.25;63.51;101573.94;1700533;82;21524;-60
2022/02/14 06:25:12;;;;;;;12.25;6.62;;;;;;;0.32;63.42;101573.39;1704483;82;21047;-60
2022/02/14 06:27:39;;;;;;;13.00;5.30;;;;;;;0.36;63.35;101573.77;1706224;82;21070;-60
2022/02/14 06:30:07;;;;;;;12.43;6.70;;;;;;;0.39;63.38;101562.06;1696984;83;21102;-60
2022/02/14 06:32:37;;;;;;;17.80;5.35;;;;;;;0.39;63.38;101562.06;1709636;83;21599;-60
2022/02/14 06:35:05;;;;;;;10.72;5.45;;;;;;;0.42;63.30;101562.01;1704931;83;21118;-60
2022/02/14 06:37:31;;;;;;;12.25;5.00;;;;;;;0.43;63.45;101557.22;1704033;83;21035;-60
2022/02/14 06:39:58;;;;;;;9.55;5.60;;;;;;;0.43;63.55;101561.11;1680260;83;21070;-60
2022/02/14 06:42:26;;;;;;;10.75;5.03;;;;;;;0.47;63.49;101563.19;1691702;82;21075;-60
2022/02/14 06:44:52;;;;;;;10.68;4.83;;;;;;;0.50;63.43;101558.80;1698596;82;21074;-60
2022/02/14 06:47:19;;;;;;;11.18;4.92;;;;;;;0.54;63.52;101566.09;1700678;82;21533;-60
2022/02/14 06:49:45;;;;;;;8.83;5.17;;;;;;;0.59;63.34;101567.28;1700886;82;21094;-60
2022/02/14 06:52:12;;;;;;;11.93;4.75;;;;;;;0.59;63.34;101567.28;1697095;82;21863;-60
2022/02/14 06:54:38;;;;;;;10.72;4.75;;;;;;;0.66;63.41;101566.30;1700072;82;22341;-60
2022/02/14 06:57:05;;;;;;;12.90;5.60;;;;;;;0.72;63.32;101564.86;1701447;83;21756;-61
2022/02/14 06:59:31;;;;;;;8.05;4.75;;;;;;;0.76;63.24;101563.93;1708019;82;21336;-62
2022/02/14 07:01:57;;;;;;;10.13;4.97;;;;;;;0.80;63.11;101556.49;1677781;82;21069;-61
2022/02/14 07:04:26;;;;;;;9.75;4.85;;;;;;;0.87;62.95;101555.47;1682508;82;21963;-62
2022/02/14 07:06:52;;;;;;;13.83;4.28;;;;;;;0.89;63.03;101558.91;1681759;82;22131;-62
2022/02/14 07:09:20;;;;;;;9.63;4.92;;;;;;;0.95;63.15;101559.66;1704015;82;21018;-62
2022/02/14 07:11:46;;;;;;;9.65;4.78;;;;;;;1.02;63.03;101562.08;1721490;81;21109;-60
2022/02/14 07:14:13;;;;;;;8.15;4.62;;;;;;;1.07;62.54;101561.98;1698573;82;21152;-61
2022/02/14 07:19:02;;;;;;;7.30;4.08;;;;;;;1.16;62.63;101557.91;1788708;78;24378;-61
2022/02/14 07:21:31;;;;;;;8.53;4.62;;;;;;;1.20;62.41;101556.94;1770861;79;20908;-61
2022/02/14 07:23:57;;;;;;;8.65;4.20;;;;;;;1.26;62.24;101560.70;1773405;79;21438;-61
2022/02/14 07:26:24;;;;;;;9.43;4.53;;;;;;;1.36;62.03;101563.08;1769674;79;20995;-61
2022/02/14 07:28:52;;;;;;;7.40;3.83;;;;;;;1.41;61.96;101554.32;1710509;81;20939;-61
2022/02/14 07:31:19;;;;;;;8.63;4.10;;;;;;;1.50;61.64;101551.95;1689667;83;21075;-60
2022/02/14 07:33:45;;;;;;;13.83;5.20;;;;;;;1.57;61.64;101552.20;1716799;81;20959;-60
2022/02/14 07:36:12;;;;;;;7.22;3.72;;;;;;;1.66;61.52;101548.53;1706458;82;21137;-60
2022/02/14 07:38:39;;;;;;;8.30;4.45;;;;;;;1.74;61.11;101549.20;1721836;81;21013;-60
2022/02/14 07:41:05;;;;;;;9.00;4.40;;;;;;;1.82;60.81;101545.13;1700763;83;21457;-60
2022/02/14 07:43:33;;;;;;;10.10;3.55;;;;;;;1.87;60.29;101544.56;1707741;81;21067;-59
2022/02/14 07:46:00;;;;;;;10.43;4.30;;;;;;;1.91;59.67;101537.09;1716635;82;21082;-60
2022/02/14 07:48:26;;;;;;;8.63;3.87;;;;;;;1.95;59.86;101535.27;1710700;81;21105;-63
2022/02/14 07:50:52;;;;;;;7.97;3.55;;;;;;;1.99;59.91;101541.66;1714341;81;21144;-61
2022/02/14 07:53:19;;;;;;;15.03;4.08;;;;;;;2.04;59.74;101540.24;1742991;80;20956;-62
2022/02/14 07:55:46;;;;;;;8.40;4.10;;;;;;;2.08;59.63;101535.36;1683826;83;21003;-62
2022/02/14 07:58:12;;;;;;;6.87;3.60;;;;;;;2.15;59.51;101530.86;1712155;81;21074;-62
2022/02/14 08:00:41;;;;;;;7.53;3.80;;;;;;;2.18;59.38;101535.52;1714145;81;21120;-62
2022/02/14 08:03:09;;;;;;;8.40;4.05;;;;;;;2.28;59.11;101530.94;1716582;81;21699;-61
2022/02/14 08:05:36;;;;;;;10.15;3.62;;;;;;;2.33;58.97;101528.22;1712235;82;21011;-62
2022/02/14 08:08:02;;;;;;;10.48;4.15;;;;;;;2.39;58.84;101523.71;1718580;81;20987;-62
2022/02/14 08:10:29;;;;;;;7.20;3.70;;;;;;;2.45;58.46;101517.94;1721195;81;21006;-62
2022/02/14 08:12:56;;;;;;;9.10;4.35;;;;;;;2.53;58.42;101523.32;1716405;81;21195;-62
2022/02/14 08:15:22;;;;;;;11.03;4.17;;;;;;;2.59;57.86;101529.66;1720357;82;21032;-62
2022/02/14 08:17:50;;;;;;;8.93;3.52;;;;;;;2.65;57.52;101532.52;1714593;81;21089;-62
2022/02/14 08:20:17;;;;;;;7.55;4.05;;;;;;;2.69;56.99;101526.34;1683265;83;21520;-60
2022/02/14 08:22:46;;;;;;;7.95;3.45;;;;;;;2.71;57.06;101520.66;1742650;80;20996;-62
2022/02/14 08:25:13;;;;;;;6.55;3.00;;;;;;;2.78;56.45;101527.36;1738975;80;21089;-62
2022/02/14 08:27:40;;;;;;;6.58;3.42;;;;;;;2.86;55.99;101527.58;1744960;80;21576;-62
2022/02/14 08:30:08;;;;;;;6.97;3.42;;;;;;;2.93;56.17;101526.52;1739708;80;21082;-62
2022/02/14 08:32:35;;;;;;;8.23;3.10;;;;;;;2.99;55.94;101527.62;1735593;80;21075;-62
2022/02/14 08:35:01;;;;;;;7.75;3.70;;;;;;;3.04;54.91;101517.93;1737960;80;21064;-60
2022/02/14 08:37:28;;;;;;;6.22;3.10;;;;;;;3.10;54.70;101523.41;1742690;80;21149;-59
2022/02/14 08:39:54;;;;;;;9.18;3.67;;;;;;;3.13;54.26;101518.96;1744837;80;21050;-59
2022/02/14 08:42:22;;;;;;;7.75;3.33;;;;;;;3.18;54.59;101533.56;1735001;80;22220;-61
2022/02/14 08:44:49;;;;;;;9.43;3.27;;;;;;;3.23;54.06;101523.44;1676503;81;68475;-84
2022/02/14 08:47:15;;;;;;;9.25;3.35;;;;;;;3.27;53.50;101541.09;1725035;81;21019;-84
2022/02/14 08:49:42;;;;;;;7.87;3.42;;;;;;;3.27;54.11;101523.73;1728711;81;21565;-84
2022/02/14 08:52:11;;;;;;;7.62;3.42;;;;;;;3.34;53.98;101534.80;1721235;81;22108;-84
2022/02/14 08:54:38;;;;;;;9.60;4.42;;;;;;;3.35;53.65;101541.25;1696588;81;21450;-83
2022/02/14 08:57:06;;;;;;;9.28;3.72;;;;;;;3.41;53.61;101529.79;1723379;81;21027;-84
2022/02/14 08:59:32;;;;;;;8.63;3.47;;;;;;;3.43;53.53;101528.45;1692429;81;21655;-84
2022/02/14 09:02:01;;;;;;;10.05;3.98;;;;;;;3.47;53.27;101541.31;1723749;81;21513;-84
2022/02/14 09:04:27;;;;;;;10.45;3.10;;;;;;;3.56;53.46;101536.72;1731025;81;21581;-84
2022/02/14 09:06:55;;;;;;;7.45;3.20;;;;;;;3.62;53.22;101539.14;1730345;81;21653;-85
2022/02/14 09:09:25;;;;;;;11.40;4.28;;;;;;;3.70;52.77;101543.64;1726964;81;21002;-81
2022/02/14 09:11:52;;;;;;;9.83;4.25;;;;;;;3.73;51.58;101542.22;1724876;81;21065;-81
2022/02/14 09:14:19;;;;;;;9.15;3.70;;;;;;;3.75;51.86;101540.87;1740136;80;21466;-85
2022/02/14 09:16:49;;;;;;;6.10;3.22;;;;;;;3.78;51.73;101552.48;1724650;81;22123;-83
2022/02/14 09:19:15;;;;;;;7.97;3.37;;;;;;;3.79;51.35;101547.69;1719449;81;21049;-85
2022/02/14 09:21:42;;;;;;;10.08;4.17;;;;;;;3.75;51.53;101547.38;1721771;81;21097;-87
2022/02/14 09:24:12;;;;;;;10.38;3.77;;;;;;;3.74;51.09;101549.14;1722130;81;21061;-83
2022/02/14 09:26:41;;;;;;;9.35;4.10;;;;;;;3.74;51.29;101548.30;1725696;81;21297;-88
2022/02/14 09:29:10;;;;;;;7.55;3.50;;;;;;;3.75;51.28;101544.77;1725921;81;21644;-87
2022/02/14 09:31:38;;;;;;;9.80;3.45;;;;;;;3.81;51.46;101545.87;1724435;79;21007;-88
2022/02/14 09:34:05;;;;;;;7.72;3.50;;;;;;;3.87;50.69;101546.53;1717340;81;21117;-86
2022/02/14 09:36:32;;;;;;;8.20;3.77;;;;;;;3.94;50.33;101542.43;1728829;81;21092;-85
2022/02/14 09:38:59;;;;;;;8.25;3.75;;;;;;;3.98;50.04;101537.50;1719206;81;21096;-86
2022/02/14 09:41:27;;;;;;;8.43;3.70;;;;;;;3.97;50.15;101543.59;1721837;81;21478;-83
2022/02/14 09:43:54;;;;;;;7.47;3.60;;;;;;;3.95;50.23;101536.30;1726876;81;21384;-82
2022/02/14 09:46:21;;;;;;;8.35;4.20;;;;;;;3.96;50.20;101534.95;1718361;81;21537;-84
2022/02/14 09:48:47;;;;;;;12.65;3.92;;;;;;;3.97;50.12;101524.94;1711670;81;21002;-85
2022/02/14 09:51:17;;;;;;;9.60;2.98;;;;;;;4.04;50.28;101520.38;1719308;79;21102;-82
2022/02/14 09:53:44;;;;;;;9.98;4.37;;;;;;;4.12;49.44;101532.68;1711644;81;20963;-81
2022/02/14 09:56:11;;;;;;;8.23;3.58;;;;;;;4.17;49.53;101522.95;1715086;81;21091;-86
2022/02/14 09:58:38;;;;;;;10.43;3.85;;;;;;;4.21;49.31;101520.63;1714881;81;21023;-86
2022/02/14 10:01:06;;;;;;;8.65;3.27;;;;;;;4.23;48.94;101513.59;1707479;81;21116;-82
2022/02/14 10:03:33;;;;;;;9.45;3.92;;;;;;;4.26;48.93;101525.22;1710002;81;21208;-84
2022/02/14 10:06:05;;;;;;;6.58;3.22;;;;;;;4.32;48.83;101512.88;1717587;81;20937;-79
2022/02/14 10:08:35;;;;;;;10.45;3.30;;;;;;;4.39;48.35;101510.00;1711950;81;20951;-79
2022/02/14 10:11:18;;;;;;;7.78;3.52;;;;;;;4.43;48.07;101511.58;1712057;80;21003;-83
2022/02/14 10:13:50;;;;;;;7.20;3.90;;;;;;;4.48;47.42;101520.55;1693512;83;21530;-84
2022/02/14 10:16:14;;;;;;;6.42;2.87;;;;;;;4.52;47.66;101517.38;1637112;83;21876;-85
2022/02/14 10:18:42;;;;;;;7.45;3.50;;;;;;;4.56;47.14;101501.56;1693622;83;21658;-83
2022/02/14 10:21:30;;;;;;;7.62;3.00;;;;;;;4.59;46.70;101502.77;1694650;83;21514;-83
2022/02/14 10:24:07;;;;;;;6.67;2.90;;;;;;;4.61;46.60;101505.31;1669610;83;21835;-85
2022/02/14 10:26:46;;;;;;;7.58;3.10;;;;;;;4.62;46.45;101505.27;1693091;81;21514;-86
2022/02/14 10:29:22;;;;;;;7.53;3.05;;;;;;;4.67;46.64;101498.55;1694618;83;21095;-81
2022/02/14 10:31:55;;;;;;;5.53;2.60;;;;;;;4.73;46.10;101508.76;1689283;83;21078;-86
2022/02/14 10:34:38;;;;;;;8.43;3.37;;;;;;;4.77;46.31;101499.06;1691872;82;21050;-84
2022/02/14 10:37:12;;;;;;;6.50;2.77;;;;;;;4.81;45.72;101493.67;1671282;83;21054;-84
2022/02/14 10:39:39;;;;;;;7.78;2.80;;;;;;;4.87;45.04;101493.88;1698897;82;21060;-83
2022/02/14 10:42:14;;;;;;;6.65;2.52;;;;;;;4.89;45.21;101486.84;1666961;84;21029;-85
2022/02/14 10:47:37;;;;;;;5.92;2.83;;;;;;;4.95;45.14;101482.70;1669031;83;21360;-84
2022/02/14 10:50:23;;;;;;;8.40;2.35;;;;;;;5.03;44.78;101475.43;1691289;83;21095;-82
2022/02/14 10:52:55;;;;;;;7.97;2.90;;;;;;;5.13;44.60;101481.14;1696043;83;20993;-84
2022/02/14 10:55:32;;;;;;;9.05;3.25;;;;;;;5.23;44.80;101472.93;1692293;82;21087;-85
2022/02/14 10:58:00;;;;;;;6.10;2.37;;;;;;;5.34;43.99;101478.58;1667420;83;21777;-83
2022/02/14 11:00:36;;;;;;;5.85;2.25;;;;;;;5.43;42.99;101474.30;1695401;82;21070;-83
2022/02/14 11:03:06;;;;;;;5.95;2.55;;;;;;;5.44;43.06;101464.70;1672833;83;20991;-84
2022/02/14 11:05:33;;;;;;;9.38;3.25;;;;;;;5.46;43.04;101466.31;1658995;84;21007;-85
2022/02/14 11:08:01;;;;;;;7.22;2.80;;;;;;;5.48;43.10;101468.86;1669290;82;21014;-83
2022/02/14 11:10:29;;;;;;;12.23;2.98;;;;;;;5.48;43.31;101468.86;1693284;82;20974;-83
2022/02/14 11:12:57;;;;;;;8.98;2.67;;;;;;;5.50;43.49;101472.28;1688312;82;21539;-85
2022/02/14 11:15:27;;;;;;;5.40;2.60;;;;;;;5.53;43.57;101466.91;1692638;82;20987;-84
2022/02/14 11:18:08;;;;;;;8.30;2.72;;;;;;;5.57;43.82;101469.80;1690686;83;20947;-82
2022/02/14 11:20:35;;;;;;;9.78;3.15;;;;;;;5.66;43.44;101469.88;1691330;82;21103;-81
2022/02/14 11:23:03;;;;;;;7.78;3.27;;;;;;;5.69;43.24;101473.20;1695272;82;21062;-81
2022/02/14 11:25:43;;;;;;;7.72;2.40;;;;;;;5.76;43.34;101461.56;1693227;82;21083;-83
2022/02/14 11:28:54;;;;;;;6.15;2.55;;;;;;;5.83;42.95;101460.84;1716729;81;21058;-82
2022/02/14 11:31:25;;;;;;;5.65;2.83;;;;;;;5.89;43.13;101451.92;1692301;83;21014;-86
2022/02/14 11:33:58;;;;;;;7.10;3.27;;;;;;;5.95;42.05;101450.33;1692256;82;21082;-85
2022/02/14 11:36:27;;;;;;;7.33;2.58;;;;;;;5.93;42.19;101449.12;1689036;83;21648;-85
2022/02/14 11:38:59;;;;;;;5.97;2.52;;;;;;;5.89;42.37;101437.55;1723268;81;21094;-83
2022/02/14 11:41:45;;;;;;;5.70;2.62;;;;;;;5.93;41.96;101429.52;1693264;82;21038;-85